Max Planck — ELZY8 — position and weather

sailwx.info

Track history (hours):
 
Tides and Currents Weather Stations Pressure Air Temp Water Temp Dewpoint Dewpoint Depression Visibility Wind Speed Wind Dir Waves Ship Positions

Max Planck

Last reported at 2015-Jan-19 03:31 UTC. Time now 2015-Jan-30 20:04 UTC.
Position N 30°13' E 122°00'.
Warning: this ship's position is 11 days out of date.

Length 99.9 m; beam 16.2 m; draft 6.8 m.

Type: Ship (hazmat cat D). MMSI: 636091773.

Date/timePositionNaut miles runAvg speedWind from/ knotsBaromVisibWave heightAir tempDewpointWater temp
2015-Jan-19 03:31N 30°13' E 122°00'9 9.8
2015-Jan-19 02:33N 30°17' E 121°50'7 7.3
2015-Jan-19 01:33N 30°24' E 121°52'1312.5
2015-Jan-19 00:33N 30°30' E 122°05'1110.9
2015-Jan-18 23:33N 30°39' E 122°13'1211.7
2015-Jan-18 22:33N 30°50' E 122°18'1110.7
2015-Jan-18 21:33N 30°53' E 122°30'  
2015-Jan-14 19:23N 34°03' E 130°47'  
2015-Jan-12 03:13N 34°54' E 139°25'6 8.4
2015-Jan-12 02:30N 34°58' E 139°31'8 8.6
2015-Jan-12 01:33N 35°03' E 139°39'9 8.6
2015-Jan-12 00:33N 35°09' E 139°46'10 9.6
2015-Jan-11 23:33N 35°19' E 139°43'9 9.2
2015-Jan-11 22:33N 35°27' E 139°47'4 0.2
2015-Jan-11 01:33N 35°30' E 139°44'2 1.7
2015-Jan-11 00:33N 35°28' E 139°44'0 0.2
2015-Jan-10 23:33N 35°28' E 139°44'0 0.1
2015-Jan-10 22:33N 35°28' E 139°44'0 0.0
2015-Jan-10 21:33N 35°28' E 139°44'0 0.0
2015-Jan-10 20:33N 35°28' E 139°44'0 0.0
2015-Jan-10 19:30N 35°28' E 139°44'0 0.0
2015-Jan-10 18:33N 35°28' E 139°44'0 0.1
2015-Jan-10 17:33N 35°28' E 139°44'0 0.0
2015-Jan-10 16:33N 35°28' E 139°44'0 0.0
2015-Jan-10 15:33N 35°28' E 139°44'0 0.0
2015-Jan-10 14:33N 35°28' E 139°44'0 0.0
2015-Jan-10 13:33N 35°28' E 139°44'0 0.0
2015-Jan-10 12:33N 35°28' E 139°44'0 0.0
2015-Jan-10 11:30N 35°28' E 139°44'0 0.1
2015-Jan-10 10:33N 35°28' E 139°44'0 0.0
2015-Jan-10 09:33N 35°28' E 139°44'0 0.0
2015-Jan-10 08:33N 35°28' E 139°44'0 0.0
2015-Jan-10 07:33N 35°28' E 139°44'0 0.0
2015-Jan-10 06:33N 35°28' E 139°44'0 0.0
2015-Jan-10 05:33N 35°28' E 139°44'0 0.0
2015-Jan-10 04:33N 35°28' E 139°44'0 0.1
2015-Jan-10 03:33N 35°28' E 139°44'0 0.0
2015-Jan-10 02:33N 35°28' E 139°44'0 0.0
2015-Jan-10 01:33N 35°28' E 139°44'0 0.0
2015-Jan-10 00:33N 35°28' E 139°44'0 0.0
2015-Jan-09 23:33N 35°28' E 139°44'0 0.0
2015-Jan-09 22:33N 35°28' E 139°44'0 0.0
2015-Jan-09 21:33N 35°28' E 139°44'0 0.0
2015-Jan-09 20:33N 35°28' E 139°44'0 0.0
2015-Jan-09 19:33N 35°28' E 139°44'0 0.0
2015-Jan-09 18:33N 35°28' E 139°44'0 0.0
2015-Jan-09 17:33N 35°28' E 139°44'0 0.1
2015-Jan-09 16:33N 35°28' E 139°44'0 0.0
2015-Jan-09 15:33N 35°28' E 139°44'0 0.0
2015-Jan-09 14:33N 35°28' E 139°44'0 0.0
2015-Jan-09 13:33N 35°28' E 139°44'0 0.0
2015-Jan-09 12:33N 35°28' E 139°44'0 0.0
2015-Jan-09 11:33N 35°28' E 139°44'0 0.0
2015-Jan-09 10:33N 35°28' E 139°44'0 0.0
2015-Jan-09 09:33N 35°28' E 139°44'0 0.1
2015-Jan-09 08:33N 35°28' E 139°44'0 0.1
2015-Jan-09 07:33N 35°28' E 139°44'8 7.6
2015-Jan-09 06:33N 35°21' E 139°45'1111.0
2015-Jan-09 05:33N 35°10' E 139°46'1110.7
2015-Jan-09 04:33N 34°59' E 139°42'  
Track history (hours):
 
Tides and Currents Weather Stations Pressure Air Temp Water Temp Dewpoint Dewpoint Depression Visibility Wind Speed Wind Dir Waves Ship Positions

Max Planck

Last reported at 2015-Jan-19 03:31 UTC. Time now 2015-Jan-30 20:04 UTC.
Position N 30°13' E 122°00'.
Warning: this ship's position is 11 days out of date.

Length 99.9 m; beam 16.2 m; draft 6.8 m.

Type: Ship (hazmat cat D). MMSI: 636091773.

Date/timePositionNaut miles runAvg speedWind from/ knotsBaromVisibWave heightAir tempDewpointWater temp
2015-Jan-19 03:31N 30°13' E 122°00'9 9.8
2015-Jan-19 02:33N 30°17' E 121°50'7 7.3
2015-Jan-19 01:33N 30°24' E 121°52'1312.5
2015-Jan-19 00:33N 30°30' E 122°05'1110.9
2015-Jan-18 23:33N 30°39' E 122°13'1211.7
2015-Jan-18 22:33N 30°50' E 122°18'1110.7
2015-Jan-18 21:33N 30°53' E 122°30'  
2015-Jan-14 19:23N 34°03' E 130°47'  
2015-Jan-12 03:13N 34°54' E 139°25'6 8.4
2015-Jan-12 02:30N 34°58' E 139°31'8 8.6
2015-Jan-12 01:33N 35°03' E 139°39'9 8.6
2015-Jan-12 00:33N 35°09' E 139°46'10 9.6
2015-Jan-11 23:33N 35°19' E 139°43'9 9.2
2015-Jan-11 22:33N 35°27' E 139°47'4 0.2
2015-Jan-11 01:33N 35°30' E 139°44'2 1.7
2015-Jan-11 00:33N 35°28' E 139°44'0 0.2
2015-Jan-10 23:33N 35°28' E 139°44'0 0.1
2015-Jan-10 22:33N 35°28' E 139°44'0 0.0
2015-Jan-10 21:33N 35°28' E 139°44'0 0.0
2015-Jan-10 20:33N 35°28' E 139°44'0 0.0
2015-Jan-10 19:30N 35°28' E 139°44'0 0.0
2015-Jan-10 18:33N 35°28' E 139°44'0 0.1
2015-Jan-10 17:33N 35°28' E 139°44'0 0.0
2015-Jan-10 16:33N 35°28' E 139°44'0 0.0
2015-Jan-10 15:33N 35°28' E 139°44'0 0.0
2015-Jan-10 14:33N 35°28' E 139°44'0 0.0
2015-Jan-10 13:33N 35°28' E 139°44'0 0.0
2015-Jan-10 12:33N 35°28' E 139°44'0 0.0
2015-Jan-10 11:30N 35°28' E 139°44'0 0.1
2015-Jan-10 10:33N 35°28' E 139°44'0 0.0
2015-Jan-10 09:33N 35°28' E 139°44'0 0.0
2015-Jan-10 08:33N 35°28' E 139°44'0 0.0
2015-Jan-10 07:33N 35°28' E 139°44'0 0.0
2015-Jan-10 06:33N 35°28' E 139°44'0 0.0
2015-Jan-10 05:33N 35°28' E 139°44'0 0.0
2015-Jan-10 04:33N 35°28' E 139°44'0 0.1
2015-Jan-10 03:33N 35°28' E 139°44'0 0.0
2015-Jan-10 02:33N 35°28' E 139°44'0 0.0
2015-Jan-10 01:33N 35°28' E 139°44'0 0.0
2015-Jan-10 00:33N 35°28' E 139°44'0 0.0
2015-Jan-09 23:33N 35°28' E 139°44'0 0.0
2015-Jan-09 22:33N 35°28' E 139°44'0 0.0
2015-Jan-09 21:33N 35°28' E 139°44'0 0.0
2015-Jan-09 20:33N 35°28' E 139°44'0 0.0
2015-Jan-09 19:33N 35°28' E 139°44'0 0.0
2015-Jan-09 18:33N 35°28' E 139°44'0 0.0
2015-Jan-09 17:33N 35°28' E 139°44'0 0.1
2015-Jan-09 16:33N 35°28' E 139°44'0 0.0
2015-Jan-09 15:33N 35°28' E 139°44'0 0.0
2015-Jan-09 14:33N 35°28' E 139°44'0 0.0
2015-Jan-09 13:33N 35°28' E 139°44'0 0.0
2015-Jan-09 12:33N 35°28' E 139°44'0 0.0
2015-Jan-09 11:33N 35°28' E 139°44'0 0.0
2015-Jan-09 10:33N 35°28' E 139°44'0 0.0
2015-Jan-09 09:33N 35°28' E 139°44'0 0.1
2015-Jan-09 08:33N 35°28' E 139°44'0 0.1
2015-Jan-09 07:33N 35°28' E 139°44'8 7.6
2015-Jan-09 06:33N 35°21' E 139°45'1111.0
2015-Jan-09 05:33N 35°10' E 139°46'1110.7
2015-Jan-09 04:33N 34°59' E 139°42'  

Dump ship's entire track history